London, Canada
Current Conditions -  °F | °C
As of 11:00 AM on Tuesday 21 Oct 2014 (Local Time) from CYXU Reporting Station
Rain Showers Rain Showers  
Wind Chill: 38°   Ceiling: 900
Heat Index: 45°   Visibility: 10mi
Dew Point: 43°   Wind: 14mph
Humidity: 93%   Direction: 340°NNW
Pressure: 29.92"   Gusts: 20mph
Location:  42.99°N, 81.25°W
Report Text: CYXU 211500Z 34012G17KT 10SM -SHRA OVC009 07/06 A2992 RMK SC8 CU EMBD SLP136
Loading
Personal Weather Stations






























Interactive Weather Map
Tropical Storm Tracking
New forecast layout! Learn more

10-Day Weather Forecast

Advertisements
Track Severe Weather on mobile